Airfield :
LOGIN :

Register | Disclaimer

   EN    FR    IT 

 










Legend :    VFR   Marginal VFR   IFR   Intensive IFR   Very Intensive IFR
Visi :
Ceiling :
>= 8 km
>= 3000ft
5 to 8 km
1000 to 3000 ft
1500m to 5 km
500 to 1000 ft
800 to 1500m
200 to 500 ft
< 800m
< 200 ft
Symbols :   Thunderstorms  Fog  Heavy snow  Heavy precipitations  Wind > 20 kt
SIGMETs :     Misc.  Thunderstorms  Icing  Turbulence  Mountain Waves  Volcanic Ashes






- Airport Elevation : 359 ft
- IATA code : BVA


LFOB - Beauvais

CURRENT METAR :
  • 020830Z AUTO 27008KT 9999 FEW017 SCT024 BKN035 16/12 Q1013 NOSIG

EXPIRED METARs :
  • 020800Z AUTO 27009KT 9999 FEW014 BKN060 BKN070 16/12 Q1013 NOSIG
  • 020730Z AUTO 28008KT 9999 FEW013 OVC056 16/13 Q1013 NOSIG
  • 020700Z AUTO 26008KT 9999 SCT012 BKN022 BKN050 15/13 Q1013 NOSIG
  • 020630Z AUTO 26008KT 9999 -RA BKN008 BKN013 OVC019 15/14 Q1012 BECMG BKN020
  • 020600Z AUTO 25006KT 9999 -DZ BKN006 BKN010 OVC019 15/15 Q1012 BECMG BKN020

TAF TAF LFOB
Valid from the 02 at 06:00 until the 03 at 06:00 UTC


020500Z 0206/0306 27012KT 9999 BKN020
TEMPO 0206/0207 BKN012
TEMPO 0211/0216 27015G25KT 4000 SHRA BKN020TCU
BECMG 0300/0302 BKN012
ATIS : +33 3 44 11 49 28



MET'MAP, your aeronautical weather chart ! - Copyright ORBIFLY December 2007 - Disclaimer

ORBIFLY MET'MAP TEAM :

Programming & Development : Alexandra Zaïnal
Concept & original design : Baudouin d'Aumeries
Assistance for programming : Marc-Olivier Méhu
Technical & hardware support : Manuel Goepfert

Contact : metmap@orbifly.com




SOURCES & CREDITS :

   NOAA